sensor_id;sensor_type;location;lat;lon;timestamp;temperature;humidity
34147;DHT22;20423;49.448;9.056;2024-03-02T00:00:09;4.60;99.90
34147;DHT22;20423;49.448;9.056;2024-03-02T00:02:44;4.60;99.90
34147;DHT22;20423;49.448;9.056;2024-03-02T00:05:11;4.60;99.90
34147;DHT22;20423;49.448;9.056;2024-03-02T00:07:37;4.60;99.90
34147;DHT22;20423;49.448;9.056;2024-03-02T00:10:07;4.60;99.90
34147;DHT22;20423;49.448;9.056;2024-03-02T00:12:33;4.50;99.90
34147;DHT22;20423;49.448;9.056;2024-03-02T00:14:59;4.60;99.90
34147;DHT22;20423;49.448;9.056;2024-03-02T00:17:27;4.70;99.90
34147;DHT22;20423;49.448;9.056;2024-03-02T00:19:54;4.60;99.90
34147;DHT22;20423;49.448;9.056;2024-03-02T00:22:20;4.50;99.90
34147;DHT22;20423;49.448;9.056;2024-03-02T00:24:46;4.60;99.90
34147;DHT22;20423;49.448;9.056;2024-03-02T00:27:12;4.60;99.90
34147;DHT22;20423;49.448;9.056;2024-03-02T00:29:40;4.60;99.90
34147;DHT22;20423;49.448;9.056;2024-03-02T00:32:09;4.50;99.90
34147;DHT22;20423;49.448;9.056;2024-03-02T00:34:37;4.50;99.90
34147;DHT22;20423;49.448;9.056;2024-03-02T00:37:03;4.50;99.90
34147;DHT22;20423;49.448;9.056;2024-03-02T00:39:28;4.50;99.90
34147;DHT22;20423;49.448;9.056;2024-03-02T00:41:54;4.40;99.90
34147;DHT22;20423;49.448;9.056;2024-03-02T00:44:20;4.40;99.90
34147;DHT22;20423;49.448;9.056;2024-03-02T00:46:47;4.40;99.90
34147;DHT22;20423;49.448;9.056;2024-03-02T00:49:23;4.40;99.90
34147;DHT22;20423;49.448;9.056;2024-03-02T00:51:50;4.40;99.90
34147;DHT22;20423;49.448;9.056;2024-03-02T00:57:20;4.30;99.90
34147;DHT22;20423;49.448;9.056;2024-03-02T00:59:48;4.20;99.90
34147;DHT22;20423;49.448;9.056;2024-03-02T01:02:14;4.20;99.90
34147;DHT22;20423;49.448;9.056;2024-03-02T01:04:39;4.20;99.90
34147;DHT22;20423;49.448;9.056;2024-03-02T01:07:05;4.10;99.90
34147;DHT22;20423;49.448;9.056;2024-03-02T01:09:31;4.00;99.90
34147;DHT22;20423;49.448;9.056;2024-03-02T01:11:56;4.00;99.90
34147;DHT22;20423;49.448;9.056;2024-03-02T01:14:22;3.90;99.90
34147;DHT22;20423;49.448;9.056;2024-03-02T01:16:48;3.80;99.90
34147;DHT22;20423;49.448;9.056;2024-03-02T01:19:13;3.80;99.90
34147;DHT22;20423;49.448;9.056;2024-03-02T01:21:40;3.80;99.90
34147;DHT22;20423;49.448;9.056;2024-03-02T01:24:05;3.70;99.90
34147;DHT22;20423;49.448;9.056;2024-03-02T01:26:31;3.70;99.90
34147;DHT22;20423;49.448;9.056;2024-03-02T01:28:57;3.70;99.90
34147;DHT22;20423;49.448;9.056;2024-03-02T01:31:22;3.70;99.90
34147;DHT22;20423;49.448;9.056;2024-03-02T01:33:48;3.70;99.90
34147;DHT22;20423;49.448;9.056;2024-03-02T01:36:14;3.80;99.90
34147;DHT22;20423;49.448;9.056;2024-03-02T01:38:39;3.90;99.90
34147;DHT22;20423;49.448;9.056;2024-03-02T01:41:05;3.80;99.90
34147;DHT22;20423;49.448;9.056;2024-03-02T01:43:31;3.80;99.90
34147;DHT22;20423;49.448;9.056;2024-03-02T01:46:08;3.70;99.90
34147;DHT22;20423;49.448;9.056;2024-03-02T01:48:34;3.70;99.90
34147;DHT22;20423;49.448;9.056;2024-03-02T01:51:00;3.60;99.90
34147;DHT22;20423;49.448;9.056;2024-03-02T01:53:26;3.60;99.90
34147;DHT22;20423;49.448;9.056;2024-03-02T01:55:52;3.40;99.90
34147;DHT22;20423;49.448;9.056;2024-03-02T01:58:17;3.40;99.90
34147;DHT22;20423;49.448;9.056;2024-03-02T02:00:43;3.30;99.90
34147;DHT22;20423;49.448;9.056;2024-03-02T02:03:10;3.10;99.90
34147;DHT22;20423;49.448;9.056;2024-03-02T02:05:35;3.10;99.90
34147;DHT22;20423;49.448;9.056;2024-03-02T02:08:01;3.10;99.90
34147;DHT22;20423;49.448;9.056;2024-03-02T02:10:27;3.10;99.90
34147;DHT22;20423;49.448;9.056;2024-03-02T02:12:52;3.10;99.90
34147;DHT22;20423;49.448;9.056;2024-03-02T02:15:28;3.10;99.90
34147;DHT22;20423;49.448;9.056;2024-03-02T02:17:57;3.10;99.90
34147;DHT22;20423;49.448;9.056;2024-03-02T02:20:23;3.20;99.90
34147;DHT22;20423;49.448;9.056;2024-03-02T02:22:53;3.30;99.90
34147;DHT22;20423;49.448;9.056;2024-03-02T02:28:09;3.20;99.90
34147;DHT22;20423;49.448;9.056;2024-03-02T02:30:35;3.20;99.90
34147;DHT22;20423;49.448;9.056;2024-03-02T02:33:00;3.10;99.90
34147;DHT22;20423;49.448;9.056;2024-03-02T02:35:26;3.10;99.90
34147;DHT22;20423;49.448;9.056;2024-03-02T02:37:52;3.00;99.90
34147;DHT22;20423;49.448;9.056;2024-03-02T02:40:18;3.00;99.90
34147;DHT22;20423;49.448;9.056;2024-03-02T02:42:44;3.00;99.90
34147;DHT22;20423;49.448;9.056;2024-03-02T02:45:10;2.90;99.90
34147;DHT22;20423;49.448;9.056;2024-03-02T02:47:38;2.90;99.90
34147;DHT22;20423;49.448;9.056;2024-03-02T02:50:04;2.80;99.90
34147;DHT22;20423;49.448;9.056;2024-03-02T02:52:33;2.70;99.90
34147;DHT22;20423;49.448;9.056;2024-03-02T02:55:01;2.50;99.90
34147;DHT22;20423;49.448;9.056;2024-03-02T02:57:28;2.30;99.90
34147;DHT22;20423;49.448;9.056;2024-03-02T02:59:55;2.20;99.90
34147;DHT22;20423;49.448;9.056;2024-03-02T03:02:21;2.00;99.90
34147;DHT22;20423;49.448;9.056;2024-03-02T03:04:46;2.10;99.90
34147;DHT22;20423;49.448;9.056;2024-03-02T03:07:12;2.00;99.90
34147;DHT22;20423;49.448;9.056;2024-03-02T03:09:37;2.00;99.90
34147;DHT22;20423;49.448;9.056;2024-03-02T03:12:04;2.20;99.90
34147;DHT22;20423;49.448;9.056;2024-03-02T03:14:29;2.30;99.90
34147;DHT22;20423;49.448;9.056;2024-03-02T03:16:55;2.10;99.90
34147;DHT22;20423;49.448;9.056;2024-03-02T03:19:21;2.30;99.90
34147;DHT22;20423;49.448;9.056;2024-03-02T03:21:46;2.30;99.90
34147;DHT22;20423;49.448;9.056;2024-03-02T03:24:12;2.30;99.90
34147;DHT22;20423;49.448;9.056;2024-03-02T03:26:37;2.30;99.90
34147;DHT22;20423;49.448;9.056;2024-03-02T03:29:03;2.30;99.90
34147;DHT22;20423;49.448;9.056;2024-03-02T03:31:29;2.30;99.90
34147;DHT22;20423;49.448;9.056;2024-03-02T03:33:54;2.30;99.90
34147;DHT22;20423;49.448;9.056;2024-03-02T03:36:20;2.30;99.90
34147;DHT22;20423;49.448;9.056;2024-03-02T03:38:46;2.40;99.90
34147;DHT22;20423;49.448;9.056;2024-03-02T03:41:11;2.30;99.90
34147;DHT22;20423;49.448;9.056;2024-03-02T03:43:37;2.40;99.90
34147;DHT22;20423;49.448;9.056;2024-03-02T03:46:02;2.40;99.90
34147;DHT22;20423;49.448;9.056;2024-03-02T03:48:28;2.40;99.90
34147;DHT22;20423;49.448;9.056;2024-03-02T03:50:56;2.30;99.90
34147;DHT22;20423;49.448;9.056;2024-03-02T03:53:21;2.30;99.90
34147;DHT22;20423;49.448;9.056;2024-03-02T03:55:47;2.30;99.90
34147;DHT22;20423;49.448;9.056;2024-03-02T03:58:15;2.20;99.90
34147;DHT22;20423;49.448;9.056;2024-03-02T04:00:42;2.10;99.90
34147;DHT22;20423;49.448;9.056;2024-03-02T04:03:07;2.10;99.90
34147;DHT22;20423;49.448;9.056;2024-03-02T04:05:33;2.10;99.90
34147;DHT22;20423;49.448;9.056;2024-03-02T04:07:58;2.20;99.90
34147;DHT22;20423;49.448;9.056;2024-03-02T04:10:25;2.20;99.90
34147;DHT22;20423;49.448;9.056;2024-03-02T04:12:50;2.10;99.90
34147;DHT22;20423;49.448;9.056;2024-03-02T04:15:16;2.20;99.90
34147;DHT22;20423;49.448;9.056;2024-03-02T04:17:43;2.10;99.90
34147;DHT22;20423;49.448;9.056;2024-03-02T04:20:09;2.20;99.90
34147;DHT22;20423;49.448;9.056;2024-03-02T04:22:35;2.20;99.90
34147;DHT22;20423;49.448;9.056;2024-03-02T04:25:01;2.20;99.90
34147;DHT22;20423;49.448;9.056;2024-03-02T04:27:27;2.30;99.90
34147;DHT22;20423;49.448;9.056;2024-03-02T04:29:52;2.30;99.90
34147;DHT22;20423;49.448;9.056;2024-03-02T04:32:18;2.40;99.90
34147;DHT22;20423;49.448;9.056;2024-03-02T04:34:45;2.50;99.90
34147;DHT22;20423;49.448;9.056;2024-03-02T04:37:11;2.60;99.90
34147;DHT22;20423;49.448;9.056;2024-03-02T04:39:37;2.50;99.90
34147;DHT22;20423;49.448;9.056;2024-03-02T04:42:03;2.50;99.90
34147;DHT22;20423;49.448;9.056;2024-03-02T04:44:28;2.60;99.90
34147;DHT22;20423;49.448;9.056;2024-03-02T04:46:54;2.50;99.90
34147;DHT22;20423;49.448;9.056;2024-03-02T04:49:20;2.50;99.90
34147;DHT22;20423;49.448;9.056;2024-03-02T04:51:45;2.50;99.90
34147;DHT22;20423;49.448;9.056;2024-03-02T04:54:11;2.50;99.90
34147;DHT22;20423;49.448;9.056;2024-03-02T04:56:36;2.60;99.90
34147;DHT22;20423;49.448;9.056;2024-03-02T04:59:17;2.60;99.90
34147;DHT22;20423;49.448;9.056;2024-03-02T05:01:43;2.70;99.90
34147;DHT22;20423;49.448;9.056;2024-03-02T05:04:09;2.70;99.90
34147;DHT22;20423;49.448;9.056;2024-03-02T05:06:38;2.80;99.90
34147;DHT22;20423;49.448;9.056;2024-03-02T05:09:05;2.80;99.90
34147;DHT22;20423;49.448;9.056;2024-03-02T05:11:30;2.80;99.90
34147;DHT22;20423;49.448;9.056;2024-03-02T05:14:02;2.70;99.90
34147;DHT22;20423;49.448;9.056;2024-03-02T05:16:27;2.80;99.90
34147;DHT22;20423;49.448;9.056;2024-03-02T05:18:53;2.80;99.90
34147;DHT22;20423;49.448;9.056;2024-03-02T05:21:19;2.80;99.90
34147;DHT22;20423;49.448;9.056;2024-03-02T05:23:44;2.90;99.90
34147;DHT22;20423;49.448;9.056;2024-03-02T05:26:10;3.00;99.90
34147;DHT22;20423;49.448;9.056;2024-03-02T05:28:53;2.90;99.90
34147;DHT22;20423;49.448;9.056;2024-03-02T05:31:19;2.90;99.90
34147;DHT22;20423;49.448;9.056;2024-03-02T05:33:44;2.90;99.90
34147;DHT22;20423;49.448;9.056;2024-03-02T05:36:10;3.00;99.90
34147;DHT22;20423;49.448;9.056;2024-03-02T05:38:35;3.00;99.90
34147;DHT22;20423;49.448;9.056;2024-03-02T05:41:07;3.10;99.90
34147;DHT22;20423;49.448;9.056;2024-03-02T05:43:33;3.20;99.90
34147;DHT22;20423;49.448;9.056;2024-03-02T05:45:58;3.20;99.90
34147;DHT22;20423;49.448;9.056;2024-03-02T05:48:24;3.20;99.90
34147;DHT22;20423;49.448;9.056;2024-03-02T05:50:50;3.20;99.90
34147;DHT22;20423;49.448;9.056;2024-03-02T05:53:15;3.20;99.90
34147;DHT22;20423;49.448;9.056;2024-03-02T05:55:41;3.10;99.90
34147;DHT22;20423;49.448;9.056;2024-03-02T05:58:07;3.10;99.90
34147;DHT22;20423;49.448;9.056;2024-03-02T06:00:32;3.20;99.90
34147;DHT22;20423;49.448;9.056;2024-03-02T06:02:58;3.10;99.90
34147;DHT22;20423;49.448;9.056;2024-03-02T06:05:24;3.10;99.90
34147;DHT22;20423;49.448;9.056;2024-03-02T06:07:50;3.10;99.90
34147;DHT22;20423;49.448;9.056;2024-03-02T06:10:15;3.10;99.90
34147;DHT22;20423;49.448;9.056;2024-03-02T06:12:41;3.00;99.90
34147;DHT22;20423;49.448;9.056;2024-03-02T06:15:07;3.00;99.90
34147;DHT22;20423;49.448;9.056;2024-03-02T06:17:34;3.10;99.90
34147;DHT22;20423;49.448;9.056;2024-03-02T06:20:00;3.20;99.90
34147;DHT22;20423;49.448;9.056;2024-03-02T06:22:26;3.20;99.90
34147;DHT22;20423;49.448;9.056;2024-03-02T06:24:51;3.20;99.90
34147;DHT22;20423;49.448;9.056;2024-03-02T06:27:17;3.30;99.90
34147;DHT22;20423;49.448;9.056;2024-03-02T06:29:42;3.30;99.90
34147;DHT22;20423;49.448;9.056;2024-03-02T06:32:08;3.30;99.90
34147;DHT22;20423;49.448;9.056;2024-03-02T06:34:33;3.30;99.90
34147;DHT22;20423;49.448;9.056;2024-03-02T06:36:59;3.40;99.90
34147;DHT22;20423;49.448;9.056;2024-03-02T06:39:24;3.50;99.90
34147;DHT22;20423;49.448;9.056;2024-03-02T06:41:51;3.60;99.90
34147;DHT22;20423;49.448;9.056;2024-03-02T06:44:17;3.60;99.90
34147;DHT22;20423;49.448;9.056;2024-03-02T06:46:42;3.70;99.90
34147;DHT22;20423;49.448;9.056;2024-03-02T06:49:08;3.80;99.90
34147;DHT22;20423;49.448;9.056;2024-03-02T06:51:36;3.80;99.90
34147;DHT22;20423;49.448;9.056;2024-03-02T06:54:01;3.80;99.90
34147;DHT22;20423;49.448;9.056;2024-03-02T06:56:27;3.90;99.90
34147;DHT22;20423;49.448;9.056;2024-03-02T06:58:53;3.90;99.90
34147;DHT22;20423;49.448;9.056;2024-03-02T07:01:18;4.00;99.90
34147;DHT22;20423;49.448;9.056;2024-03-02T07:03:45;4.10;99.90
34147;DHT22;20423;49.448;9.056;2024-03-02T07:06:11;4.10;99.90
34147;DHT22;20423;49.448;9.056;2024-03-02T07:08:36;4.20;99.90
34147;DHT22;20423;49.448;9.056;2024-03-02T07:11:02;4.30;99.90
34147;DHT22;20423;49.448;9.056;2024-03-02T07:13:27;4.30;99.90
34147;DHT22;20423;49.448;9.056;2024-03-02T07:15:53;4.30;99.90
34147;DHT22;20423;49.448;9.056;2024-03-02T07:18:28;4.40;99.90
34147;DHT22;20423;49.448;9.056;2024-03-02T07:20:53;4.40;99.90
34147;DHT22;20423;49.448;9.056;2024-03-02T07:23:21;4.50;99.90
34147;DHT22;20423;49.448;9.056;2024-03-02T07:25:49;4.50;99.90
34147;DHT22;20423;49.448;9.056;2024-03-02T07:28:15;4.50;99.90
34147;DHT22;20423;49.448;9.056;2024-03-02T07:30:41;4.50;99.90
34147;DHT22;20423;49.448;9.056;2024-03-02T07:33:06;4.50;99.90
34147;DHT22;20423;49.448;9.056;2024-03-02T07:35:32;4.50;99.90
34147;DHT22;20423;49.448;9.056;2024-03-02T07:37:58;4.60;99.90
34147;DHT22;20423;49.448;9.056;2024-03-02T07:40:23;4.60;99.90
34147;DHT22;20423;49.448;9.056;2024-03-02T07:42:49;4.60;99.90
34147;DHT22;20423;49.448;9.056;2024-03-02T07:45:15;4.60;99.90
34147;DHT22;20423;49.448;9.056;2024-03-02T07:47:46;4.60;99.90
34147;DHT22;20423;49.448;9.056;2024-03-02T07:50:12;4.60;99.90
34147;DHT22;20423;49.448;9.056;2024-03-02T07:52:38;4.60;99.90
34147;DHT22;20423;49.448;9.056;2024-03-02T07:55:03;4.60;99.90
34147;DHT22;20423;49.448;9.056;2024-03-02T07:57:29;4.60;99.90
34147;DHT22;20423;49.448;9.056;2024-03-02T07:59:54;4.50;99.90
34147;DHT22;20423;49.448;9.056;2024-03-02T08:02:20;4.60;99.90
34147;DHT22;20423;49.448;9.056;2024-03-02T08:04:46;4.50;99.90
34147;DHT22;20423;49.448;9.056;2024-03-02T08:07:12;4.50;99.90
34147;DHT22;20423;49.448;9.056;2024-03-02T08:09:37;4.50;99.90
34147;DHT22;20423;49.448;9.056;2024-03-02T08:12:03;4.50;99.90
34147;DHT22;20423;49.448;9.056;2024-03-02T08:14:29;4.50;99.90
34147;DHT22;20423;49.448;9.056;2024-03-02T08:16:54;4.40;99.90
34147;DHT22;20423;49.448;9.056;2024-03-02T08:22:49;4.40;99.90
34147;DHT22;20423;49.448;9.056;2024-03-02T08:25:14;4.40;99.90
34147;DHT22;20423;49.448;9.056;2024-03-02T08:27:41;4.40;99.90
34147;DHT22;20423;49.448;9.056;2024-03-02T08:30:07;4.40;99.90
34147;DHT22;20423;49.448;9.056;2024-03-02T08:32:33;4.40;99.90
34147;DHT22;20423;49.448;9.056;2024-03-02T08:34:59;4.50;99.90
34147;DHT22;20423;49.448;9.056;2024-03-02T08:37:24;4.50;99.90
34147;DHT22;20423;49.448;9.056;2024-03-02T08:39:50;4.60;99.90
34147;DHT22;20423;49.448;9.056;2024-03-02T08:42:16;4.70;99.90
34147;DHT22;20423;49.448;9.056;2024-03-02T08:44:43;4.90;99.90
34147;DHT22;20423;49.448;9.056;2024-03-02T08:47:09;5.10;99.90
34147;DHT22;20423;49.448;9.056;2024-03-02T08:49:35;5.20;99.90
34147;DHT22;20423;49.448;9.056;2024-03-02T08:52:00;5.40;99.90
34147;DHT22;20423;49.448;9.056;2024-03-02T08:54:26;5.50;99.90
34147;DHT22;20423;49.448;9.056;2024-03-02T08:56:52;5.60;99.90
34147;DHT22;20423;49.448;9.056;2024-03-02T08:59:17;5.70;99.90
34147;DHT22;20423;49.448;9.056;2024-03-02T09:04:35;5.80;99.90
34147;DHT22;20423;49.448;9.056;2024-03-02T09:07:00;6.00;99.90
34147;DHT22;20423;49.448;9.056;2024-03-02T09:09:26;6.00;99.90
34147;DHT22;20423;49.448;9.056;2024-03-02T09:12:07;6.10;99.90
34147;DHT22;20423;49.448;9.056;2024-03-02T09:15:17;6.20;99.90
34147;DHT22;20423;49.448;9.056;2024-03-02T09:17:43;6.30;99.90
34147;DHT22;20423;49.448;9.056;2024-03-02T09:20:09;6.30;99.90
34147;DHT22;20423;49.448;9.056;2024-03-02T09:22:35;6.30;99.90
34147;DHT22;20423;49.448;9.056;2024-03-02T09:25:00;6.40;99.90
34147;DHT22;20423;49.448;9.056;2024-03-02T09:27:26;6.50;99.90
34147;DHT22;20423;49.448;9.056;2024-03-02T09:29:51;6.60;99.90
34147;DHT22;20423;49.448;9.056;2024-03-02T09:32:17;6.80;99.90
34147;DHT22;20423;49.448;9.056;2024-03-02T09:34:42;7.20;99.90
34147;DHT22;20423;49.448;9.056;2024-03-02T09:37:08;7.60;99.90
34147;DHT22;20423;49.448;9.056;2024-03-02T09:39:34;8.10;99.90
34147;DHT22;20423;49.448;9.056;2024-03-02T09:42:00;8.50;99.90
34147;DHT22;20423;49.448;9.056;2024-03-02T09:44:26;9.10;99.90
34147;DHT22;20423;49.448;9.056;2024-03-02T09:46:51;9.70;99.90
34147;DHT22;20423;49.448;9.056;2024-03-02T09:49:17;10.00;99.90
34147;DHT22;20423;49.448;9.056;2024-03-02T09:51:47;10.60;99.90
34147;DHT22;20423;49.448;9.056;2024-03-02T09:54:13;10.60;99.90
34147;DHT22;20423;49.448;9.056;2024-03-02T09:56:39;10.80;99.90
34147;DHT22;20423;49.448;9.056;2024-03-02T09:59:04;11.10;99.90
34147;DHT22;20423;49.448;9.056;2024-03-02T10:01:30;11.30;99.90
34147;DHT22;20423;49.448;9.056;2024-03-02T10:03:58;11.20;99.90
34147;DHT22;20423;49.448;9.056;2024-03-02T10:06:25;11.10;99.90
34147;DHT22;20423;49.448;9.056;2024-03-02T10:08:51;11.20;99.90
34147;DHT22;20423;49.448;9.056;2024-03-02T10:11:30;11.00;99.90
34147;DHT22;20423;49.448;9.056;2024-03-02T10:14:09;10.70;99.90
34147;DHT22;20423;49.448;9.056;2024-03-02T10:22:11;11.60;99.90
34147;DHT22;20423;49.448;9.056;2024-03-02T10:24:38;12.20;99.90
34147;DHT22;20423;49.448;9.056;2024-03-02T10:27:07;13.00;99.90
34147;DHT22;20423;49.448;9.056;2024-03-02T10:29:37;12.50;99.90
34147;DHT22;20423;49.448;9.056;2024-03-02T10:32:04;12.70;99.90
34147;DHT22;20423;49.448;9.056;2024-03-02T10:34:32;12.60;99.90
34147;DHT22;20423;49.448;9.056;2024-03-02T10:36:57;12.30;99.90
34147;DHT22;20423;49.448;9.056;2024-03-02T10:39:36;12.50;99.90
34147;DHT22;20423;49.448;9.056;2024-03-02T10:42:02;12.50;99.90
34147;DHT22;20423;49.448;9.056;2024-03-02T10:44:29;12.60;99.90
34147;DHT22;20423;49.448;9.056;2024-03-02T10:46:55;13.20;99.90
34147;DHT22;20423;49.448;9.056;2024-03-02T10:49:21;13.30;99.90
34147;DHT22;20423;49.448;9.056;2024-03-02T10:51:48;13.30;99.90
34147;DHT22;20423;49.448;9.056;2024-03-02T10:54:13;13.10;99.90
34147;DHT22;20423;49.448;9.056;2024-03-02T10:56:40;13.00;99.90
34147;DHT22;20423;49.448;9.056;2024-03-02T11:01:39;13.10;99.90
34147;DHT22;20423;49.448;9.056;2024-03-02T11:04:08;13.00;99.90
34147;DHT22;20423;49.448;9.056;2024-03-02T11:06:36;12.70;99.90
34147;DHT22;20423;49.448;9.056;2024-03-02T11:09:08;12.60;99.90
34147;DHT22;20423;49.448;9.056;2024-03-02T11:11:37;12.50;99.90
34147;DHT22;20423;49.448;9.056;2024-03-02T11:14:07;12.70;99.90
34147;DHT22;20423;49.448;9.056;2024-03-02T11:16:37;12.70;99.90
34147;DHT22;20423;49.448;9.056;2024-03-02T11:19:09;12.70;99.90
34147;DHT22;20423;49.448;9.056;2024-03-02T11:21:35;12.50;99.90
34147;DHT22;20423;49.448;9.056;2024-03-02T11:24:28;13.00;99.90
34147;DHT22;20423;49.448;9.056;2024-03-02T11:26:58;13.30;99.90
34147;DHT22;20423;49.448;9.056;2024-03-02T11:32:03;13.60;99.90
34147;DHT22;20423;49.448;9.056;2024-03-02T11:34:30;14.10;99.90
34147;DHT22;20423;49.448;9.056;2024-03-02T11:36:56;13.90;99.90
34147;DHT22;20423;49.448;9.056;2024-03-02T11:39:22;13.70;99.90
34147;DHT22;20423;49.448;9.056;2024-03-02T11:41:48;14.10;99.90
34147;DHT22;20423;49.448;9.056;2024-03-02T11:44:15;14.40;99.90
34147;DHT22;20423;49.448;9.056;2024-03-02T11:46:41;14.60;99.90
34147;DHT22;20423;49.448;9.056;2024-03-02T11:49:07;14.70;99.90
34147;DHT22;20423;49.448;9.056;2024-03-02T11:51:34;14.70;99.90
34147;DHT22;20423;49.448;9.056;2024-03-02T11:54:00;14.80;99.90
34147;DHT22;20423;49.448;9.056;2024-03-02T11:56:28;14.90;99.90
34147;DHT22;20423;49.448;9.056;2024-03-02T11:58:54;15.00;99.90
34147;DHT22;20423;49.448;9.056;2024-03-02T12:01:20;15.50;99.90
34147;DHT22;20423;49.448;9.056;2024-03-02T12:03:46;15.70;99.90
34147;DHT22;20423;49.448;9.056;2024-03-02T12:06:11;15.90;99.90
34147;DHT22;20423;49.448;9.056;2024-03-02T12:08:38;15.60;99.90
34147;DHT22;20423;49.448;9.056;2024-03-02T12:11:04;15.70;99.90
34147;DHT22;20423;49.448;9.056;2024-03-02T12:13:51;15.40;99.90
34147;DHT22;20423;49.448;9.056;2024-03-02T12:16:24;15.10;99.90
34147;DHT22;20423;49.448;9.056;2024-03-02T12:18:49;15.30;99.90
34147;DHT22;20423;49.448;9.056;2024-03-02T12:21:15;15.50;99.90
34147;DHT22;20423;49.448;9.056;2024-03-02T12:23:41;15.40;99.90
34147;DHT22;20423;49.448;9.056;2024-03-02T12:26:06;15.00;99.90
34147;DHT22;20423;49.448;9.056;2024-03-02T12:28:33;15.10;99.90
34147;DHT22;20423;49.448;9.056;2024-03-02T12:30:59;15.00;99.90
34147;DHT22;20423;49.448;9.056;2024-03-02T12:33:24;15.00;99.90
34147;DHT22;20423;49.448;9.056;2024-03-02T12:35:50;14.70;99.90
34147;DHT22;20423;49.448;9.056;2024-03-02T12:38:16;14.60;99.90
34147;DHT22;20423;49.448;9.056;2024-03-02T12:40:41;14.60;99.90
34147;DHT22;20423;49.448;9.056;2024-03-02T12:43:07;14.30;99.90
34147;DHT22;20423;49.448;9.056;2024-03-02T12:45:33;14.40;99.90
34147;DHT22;20423;49.448;9.056;2024-03-02T12:47:59;14.10;99.90
34147;DHT22;20423;49.448;9.056;2024-03-02T12:50:25;14.00;99.90
34147;DHT22;20423;49.448;9.056;2024-03-02T12:52:54;13.80;99.90
34147;DHT22;20423;49.448;9.056;2024-03-02T12:55:23;13.60;99.90
34147;DHT22;20423;49.448;9.056;2024-03-02T12:57:50;13.40;99.90
34147;DHT22;20423;49.448;9.056;2024-03-02T13:00:17;13.50;99.90
34147;DHT22;20423;49.448;9.056;2024-03-02T13:02:45;13.50;99.90
34147;DHT22;20423;49.448;9.056;2024-03-02T13:05:11;13.50;99.90
34147;DHT22;20423;49.448;9.056;2024-03-02T13:07:39;13.20;99.90
34147;DHT22;20423;49.448;9.056;2024-03-02T13:10:06;13.10;99.90
34147;DHT22;20423;49.448;9.056;2024-03-02T13:12:34;13.10;99.90
34147;DHT22;20423;49.448;9.056;2024-03-02T13:15:00;13.20;99.90
34147;DHT22;20423;49.448;9.056;2024-03-02T13:17:28;13.60;99.90
34147;DHT22;20423;49.448;9.056;2024-03-02T13:19:56;14.00;99.90
34147;DHT22;20423;49.448;9.056;2024-03-02T13:22:31;14.30;99.90
34147;DHT22;20423;49.448;9.056;2024-03-02T13:24:57;14.30;99.90
34147;DHT22;20423;49.448;9.056;2024-03-02T13:27:23;14.40;99.90
34147;DHT22;20423;49.448;9.056;2024-03-02T13:29:49;14.00;99.90
34147;DHT22;20423;49.448;9.056;2024-03-02T13:32:14;13.60;99.90
34147;DHT22;20423;49.448;9.056;2024-03-02T13:34:45;13.20;99.90
34147;DHT22;20423;49.448;9.056;2024-03-02T13:37:10;12.90;99.90
34147;DHT22;20423;49.448;9.056;2024-03-02T13:39:36;12.70;99.90
34147;DHT22;20423;49.448;9.056;2024-03-02T13:42:09;12.50;99.90
34147;DHT22;20423;49.448;9.056;2024-03-02T13:44:35;12.40;99.90
34147;DHT22;20423;49.448;9.056;2024-03-02T13:47:01;12.30;99.90
34147;DHT22;20423;49.448;9.056;2024-03-02T13:49:27;12.20;99.90
34147;DHT22;20423;49.448;9.056;2024-03-02T13:52:00;12.20;99.90
34147;DHT22;20423;49.448;9.056;2024-03-02T13:54:28;12.20;99.90
34147;DHT22;20423;49.448;9.056;2024-03-02T13:56:54;12.20;99.90
34147;DHT22;20423;49.448;9.056;2024-03-02T13:59:20;12.10;99.90
34147;DHT22;20423;49.448;9.056;2024-03-02T14:01:47;12.10;99.90
34147;DHT22;20423;49.448;9.056;2024-03-02T14:04:13;12.10;99.90
34147;DHT22;20423;49.448;9.056;2024-03-02T14:06:38;12.10;99.90
34147;DHT22;20423;49.448;9.056;2024-03-02T14:09:04;12.10;99.90
34147;DHT22;20423;49.448;9.056;2024-03-02T14:11:32;12.10;99.90
34147;DHT22;20423;49.448;9.056;2024-03-02T14:13:58;12.00;99.90
34147;DHT22;20423;49.448;9.056;2024-03-02T14:16:23;12.00;99.90
34147;DHT22;20423;49.448;9.056;2024-03-02T14:18:52;12.00;99.90
34147;DHT22;20423;49.448;9.056;2024-03-02T14:21:18;11.90;99.90
34147;DHT22;20423;49.448;9.056;2024-03-02T14:23:43;11.90;99.90
34147;DHT22;20423;49.448;9.056;2024-03-02T14:26:09;11.90;99.90
34147;DHT22;20423;49.448;9.056;2024-03-02T14:28:35;11.90;99.90
34147;DHT22;20423;49.448;9.056;2024-03-02T14:31:00;12.00;99.90
34147;DHT22;20423;49.448;9.056;2024-03-02T14:33:27;12.00;99.90
34147;DHT22;20423;49.448;9.056;2024-03-02T14:35:53;12.00;99.90
34147;DHT22;20423;49.448;9.056;2024-03-02T14:38:20;12.00;99.90
34147;DHT22;20423;49.448;9.056;2024-03-02T14:40:45;12.00;99.90
34147;DHT22;20423;49.448;9.056;2024-03-02T14:43:11;12.00;99.90
34147;DHT22;20423;49.448;9.056;2024-03-02T14:45:37;12.00;99.90
34147;DHT22;20423;49.448;9.056;2024-03-02T14:48:03;12.00;99.90
34147;DHT22;20423;49.448;9.056;2024-03-02T14:50:29;12.00;99.90
34147;DHT22;20423;49.448;9.056;2024-03-02T14:52:55;12.00;99.90
34147;DHT22;20423;49.448;9.056;2024-03-02T14:55:23;12.10;99.90
34147;DHT22;20423;49.448;9.056;2024-03-02T14:57:49;12.00;99.90
34147;DHT22;20423;49.448;9.056;2024-03-02T15:00:15;11.90;99.90
34147;DHT22;20423;49.448;9.056;2024-03-02T15:02:41;11.90;99.90
34147;DHT22;20423;49.448;9.056;2024-03-02T15:05:07;11.90;99.90
34147;DHT22;20423;49.448;9.056;2024-03-02T15:07:33;11.90;99.90
34147;DHT22;20423;49.448;9.056;2024-03-02T15:09:59;11.90;99.90
34147;DHT22;20423;49.448;9.056;2024-03-02T15:12:24;11.90;99.90
34147;DHT22;20423;49.448;9.056;2024-03-02T15:15:03;11.90;99.90
34147;DHT22;20423;49.448;9.056;2024-03-02T15:17:29;11.90;99.90
34147;DHT22;20423;49.448;9.056;2024-03-02T15:19:55;11.80;99.90
34147;DHT22;20423;49.448;9.056;2024-03-02T15:22:21;11.90;99.90
34147;DHT22;20423;49.448;9.056;2024-03-02T15:24:46;11.90;99.90
34147;DHT22;20423;49.448;9.056;2024-03-02T15:27:12;11.90;99.90
34147;DHT22;20423;49.448;9.056;2024-03-02T15:29:39;11.90;99.90
34147;DHT22;20423;49.448;9.056;2024-03-02T15:32:05;12.00;99.90
34147;DHT22;20423;49.448;9.056;2024-03-02T15:34:32;12.00;99.90
34147;DHT22;20423;49.448;9.056;2024-03-02T15:36:59;12.00;99.90
34147;DHT22;20423;49.448;9.056;2024-03-02T15:39:25;12.00;99.90
34147;DHT22;20423;49.448;9.056;2024-03-02T15:41:53;12.00;99.90
34147;DHT22;20423;49.448;9.056;2024-03-02T15:44:19;12.00;99.90
34147;DHT22;20423;49.448;9.056;2024-03-02T15:46:45;11.90;99.90
34147;DHT22;20423;49.448;9.056;2024-03-02T15:49:11;11.90;99.90
34147;DHT22;20423;49.448;9.056;2024-03-02T15:51:37;11.90;99.90
34147;DHT22;20423;49.448;9.056;2024-03-02T15:54:07;11.90;99.90
34147;DHT22;20423;49.448;9.056;2024-03-02T15:56:33;11.80;99.90
34147;DHT22;20423;49.448;9.056;2024-03-02T15:58:59;11.70;99.90